Portada
METAR-TAF:

METAR-TAF

Aeropuertos :

Aeropuerto de Sevilla

Sevilla, España

latitud: 37-25N, longitud: 005-54W, altitud: 34 m

Observación

El informe se hizo hace 36 minutos, a las 11:30 UTC
Viento 8 kt del sur-suroeste, variando entre sur-sureste y oeste
Temperatura 24°C
Humedad 44%
Presión 1014 hPa
Visibilidad 10 km o más
Escasas nubes a una altura de 3500 ft

METAR: LEZL 261130Z 21008KT 150V260 9999 FEW035 24/11 Q1014 NOSIG

Hora: 14:06 (12:06 UTC)

Pronóstico

El informe se hizo hace 4 horas y 6 minutos, a las 08:00 UTC
Pronóstico válido del 26 a las 09 UTC al 27 a las 09 UTC
Viento 5 kt del sur
Visibilidad 10 km o más
Escasas nubes a una altura de 3500 ft
Evolucionando progresivamente
del 26 a las 09 UTC al 26 a las 11 UTC
Viento 10 kt del suroeste
Evolucionando progresivamente
del 26 a las 21 UTC al 26 a las 23 UTC
Viento 3 kt del sur

TAF: LEZL 260800Z 2609/2709 17005KT 9999 FEW035 TX28/2615Z TN15/2706Z BECMG 2609/2611 23010KT BECMG 2621/2623 17003KT

Observaciones y pronósticos meteorológicos de más de 4000 aeropuertos (mensajes METAR y TAF).

Los puntos amarillos y rojos representan las estaciones disponibles.

Ponga el ratón en el punto deseado para ver el nombre de la estación.

Haga clic para ver las observaciones y los pronósticos meteorológicos.

Para cambiar el mapa : haga clic en los botones verdes con una cruz de color negro para hacer un zoom, en el botón verde con un guión para alejar o en las flechas verdes para mapas adyacentes.


METAR-TAF: